Time;durP1;ratioP1;P1;durP2;ratioP2;P2;SDS_P1;SDS_P2;PMS_P1;PMS_P2;Temp;Humidity;BMP_temperature;BMP_pressure;BME280_temperature;BME280_humidity;BME280_pressure;Samples;Min_cycle;Max_cycle;Signal;HPM_P1;HPM_P2
2023/08/30 00:00:43;;;;;;;0.35;0.35;;;;;;;;;;6246673;23;20031;-88
2023/08/30 00:03:11;;;;;;;0.30;0.30;;;;;;;;;;6220701;22;20047;-89
2023/08/30 00:05:44;;;;;;;0.38;0.38;;;;;;;;;;6223389;23;20016;-90
2023/08/30 00:08:11;;;;;;;0.30;0.30;;;;;;;;;;6221594;23;20066;-88
2023/08/30 00:10:42;;;;;;;0.20;0.20;;;;;;;;;;6196650;23;20099;-88
2023/08/30 00:13:23;;;;;;;0.30;0.30;;;;;;;;;;6246823;23;20022;-88
2023/08/30 00:15:53;;;;;;;0.20;0.20;;;;;;;;;;6222120;23;20037;-89
2023/08/30 00:18:37;;;;;;;0.20;0.20;;;;;;;;;;6251687;23;20039;-90
2023/08/30 00:21:03;;;;;;;0.40;0.40;;;;;;;;;;6246029;23;20031;-88
2023/08/30 00:23:36;;;;;;;0.30;0.30;;;;;;;;;;6247075;23;20018;-90
2023/08/30 00:26:03;;;;;;;0.25;0.25;;;;;;;;;;6219318;23;20024;-88
2023/08/30 00:28:29;;;;;;;0.20;0.20;;;;;;;;;;6222890;23;20048;-90
2023/08/30 00:30:56;;;;;;;0.30;0.30;;;;;;;;;;6220115;23;20020;-89
2023/08/30 00:33:31;;;;;;;0.17;0.17;;;;;;;;;;6248432;23;20011;-88
2023/08/30 00:36:06;;;;;;;0.20;0.20;;;;;;;;;;6221209;23;20024;-88
2023/08/30 00:38:41;;;;;;;0.10;0.10;;;;;;;;;;6224047;23;20020;-90
2023/08/30 00:41:30;;;;;;;0.10;0.10;;;;;;;;;;6222179;23;20024;-88
2023/08/30 00:43:57;;;;;;;0.30;0.30;;;;;;;;;;6204005;22;20028;-89
2023/08/30 00:46:23;;;;;;;0.20;0.20;;;;;;;;;;6245299;22;20067;-88
2023/08/30 00:48:59;;;;;;;0.30;0.30;;;;;;;;;;6195710;23;20008;-88
2023/08/30 00:51:25;;;;;;;0.20;0.20;;;;;;;;;;6219406;23;20012;-89
2023/08/30 00:53:55;;;;;;;0.30;0.30;;;;;;;;;;6194722;23;20012;-88
2023/08/30 00:56:33;;;;;;;0.30;0.30;;;;;;;;;;6218961;23;20024;-89
2023/08/30 00:59:02;;;;;;;0.35;0.35;;;;;;;;;;6220201;23;20399;-89
2023/08/30 01:01:31;;;;;;;0.25;0.25;;;;;;;;;;6217614;23;20063;-88
2023/08/30 01:04:01;;;;;;;0.30;0.30;;;;;;;;;;6245269;23;20071;-88
2023/08/30 01:06:27;;;;;;;0.20;0.20;;;;;;;;;;6219699;23;20023;-88
2023/08/30 01:08:54;;;;;;;0.30;0.30;;;;;;;;;;6244089;23;20019;-88
2023/08/30 01:11:30;;;;;;;0.20;0.20;;;;;;;;;;6220087;23;20017;-87
2023/08/30 01:14:11;;;;;;;0.30;0.30;;;;;;;;;;6217935;23;20010;-89
2023/08/30 01:16:37;;;;;;;0.25;0.25;;;;;;;;;;6242770;23;20039;-87
2023/08/30 01:19:19;;;;;;;0.30;0.30;;;;;;;;;;6244759;23;20020;-90
2023/08/30 01:22:04;;;;;;;0.28;0.28;;;;;;;;;;6194776;23;20027;-89
2023/08/30 01:24:33;;;;;;;0.30;0.30;;;;;;;;;;6217626;23;20030;-87
2023/08/30 01:27:09;;;;;;;0.20;0.20;;;;;;;;;;6245593;23;20239;-88
2023/08/30 01:29:39;;;;;;;0.30;0.30;;;;;;;;;;6221022;23;20016;-89
2023/08/30 01:32:06;;;;;;;0.30;0.30;;;;;;;;;;6245287;23;20007;-89
2023/08/30 01:34:33;;;;;;;0.20;0.20;;;;;;;;;;6218598;23;20016;-90
2023/08/30 01:37:00;;;;;;;0.20;0.20;;;;;;;;;;6195303;23;20012;-88
2023/08/30 01:39:26;;;;;;;0.20;0.20;;;;;;;;;;6194250;23;20020;-88
2023/08/30 01:41:58;;;;;;;0.20;0.20;;;;;;;;;;6219284;23;20016;-89
2023/08/30 01:44:25;;;;;;;0.20;0.20;;;;;;;;;;6220233;23;20004;-88
2023/08/30 01:47:00;;;;;;;0.30;0.30;;;;;;;;;;6245060;23;20019;-89
2023/08/30 01:49:32;;;;;;;0.40;0.40;;;;;;;;;;6218009;23;20027;-88
2023/08/30 01:51:58;;;;;;;0.20;0.20;;;;;;;;;;6195033;23;20020;-89
2023/08/30 01:54:24;;;;;;;0.25;0.25;;;;;;;;;;6216915;23;20023;-89
2023/08/30 01:56:51;;;;;;;0.20;0.20;;;;;;;;;;6219204;23;20023;-89
2023/08/30 01:59:17;;;;;;;0.30;0.30;;;;;;;;;;6193089;23;20020;-87
2023/08/30 02:01:46;;;;;;;0.20;0.20;;;;;;;;;;6218986;23;20051;-87
2023/08/30 02:04:12;;;;;;;0.30;0.30;;;;;;;;;;6218532;23;20047;-88
2023/08/30 02:07:14;;;;;;;0.10;0.10;;;;;;;;;;6218512;23;20004;-89
2023/08/30 02:09:56;;;;;;;0.30;0.30;;;;;;;;;;6097758;23;20042;-88
2023/08/30 02:12:25;;;;;;;0.20;0.20;;;;;;;;;;6233374;23;20059;-88
2023/08/30 02:14:57;;;;;;;0.30;0.30;;;;;;;;;;6245721;23;20083;-88
2023/08/30 02:17:24;;;;;;;0.20;0.20;;;;;;;;;;6217881;23;20020;-88
2023/08/30 02:19:53;;;;;;;0.30;0.30;;;;;;;;;;6219359;23;20080;-88
2023/08/30 02:22:24;;;;;;;0.28;0.28;;;;;;;;;;6243978;23;20017;-89
2023/08/30 02:24:53;;;;;;;0.25;0.25;;;;;;;;;;6241335;23;20016;-87
2023/08/30 02:27:23;;;;;;;0.30;0.30;;;;;;;;;;6243514;23;20050;-88
2023/08/30 02:29:53;;;;;;;0.30;0.30;;;;;;;;;;6219014;23;20589;-88
2023/08/30 02:32:23;;;;;;;0.20;0.20;;;;;;;;;;6219407;23;20035;-89
2023/08/30 02:34:57;;;;;;;0.10;0.10;;;;;;;;;;6271186;23;20016;-89
2023/08/30 02:37:23;;;;;;;0.10;0.10;;;;;;;;;;6212713;23;20022;-89
2023/08/30 02:39:49;;;;;;;0.30;0.30;;;;;;;;;;6242019;23;20012;-88
2023/08/30 02:42:15;;;;;;;0.20;0.20;;;;;;;;;;6219212;23;20008;-89
2023/08/30 02:44:42;;;;;;;0.30;0.30;;;;;;;;;;6217277;23;20019;-88
2023/08/30 02:47:12;;;;;;;0.20;0.20;;;;;;;;;;6220295;23;20008;-88
2023/08/30 02:49:46;;;;;;;0.30;0.30;;;;;;;;;;6221883;22;20023;-88
2023/08/30 02:52:13;;;;;;;0.25;0.25;;;;;;;;;;6230757;22;20006;-88
2023/08/30 02:54:51;;;;;;;;;;;;;;;;;;6243274;23;20016;-90
2023/08/30 02:57:17;;;;;;;0.10;0.10;;;;;;;;;;6218777;23;19915;-88
2023/08/30 02:59:43;;;;;;;0.10;0.10;;;;;;;;;;6218577;23;19996;-89
2023/08/30 03:02:12;;;;;;;0.30;0.30;;;;;;;;;;6217435;23;20054;-89
2023/08/30 03:04:38;;;;;;;0.20;0.20;;;;;;;;;;6218701;23;20011;-89
2023/08/30 03:07:05;;;;;;;0.30;0.30;;;;;;;;;;6220574;23;20046;-89
2023/08/30 03:09:32;;;;;;;0.20;0.20;;;;;;;;;;6244088;23;20055;-88
2023/08/30 03:11:59;;;;;;;0.30;0.30;;;;;;;;;;6195322;22;20028;-88
2023/08/30 03:14:26;;;;;;;0.20;0.20;;;;;;;;;;6245197;23;20063;-90
2023/08/30 03:16:56;;;;;;;0.30;0.30;;;;;;;;;;6243816;23;20038;-88
2023/08/30 03:19:25;;;;;;;0.20;0.20;;;;;;;;;;6219045;23;20024;-89
2023/08/30 03:22:01;;;;;;;0.20;0.20;;;;;;;;;;6248434;23;20016;-90
2023/08/30 03:24:27;;;;;;;0.20;0.20;;;;;;;;;;6194848;23;20031;-91
2023/08/30 03:26:56;;;;;;;0.20;0.20;;;;;;;;;;6220383;23;20024;-89
2023/08/30 03:29:23;;;;;;;0.17;0.17;;;;;;;;;;6218918;23;20219;-90
2023/08/30 03:31:52;;;;;;;0.30;0.30;;;;;;;;;;6246957;23;20064;-89
2023/08/30 03:34:18;;;;;;;0.20;0.20;;;;;;;;;;6223194;23;20031;-90
2023/08/30 03:36:50;;;;;;;0.15;0.15;;;;;;;;;;6221125;23;20021;-88
2023/08/30 03:39:26;;;;;;;0.40;0.40;;;;;;;;;;6220172;23;20028;-88
2023/08/30 03:42:04;;;;;;;0.30;0.30;;;;;;;;;;6224285;22;20047;-91
2023/08/30 03:44:30;;;;;;;0.30;0.30;;;;;;;;;;6222253;23;20047;-89
2023/08/30 03:46:58;;;;;;;0.20;0.20;;;;;;;;;;6222614;23;20028;-88
2023/08/30 03:49:26;;;;;;;0.20;0.20;;;;;;;;;;6221040;23;20012;-89
2023/08/30 03:51:56;;;;;;;0.20;0.20;;;;;;;;;;6197905;23;19996;-89
2023/08/30 03:54:22;;;;;;;0.10;0.10;;;;;;;;;;6244053;23;20023;-88
2023/08/30 03:56:48;;;;;;;0.20;0.20;;;;;;;;;;6220092;23;20069;-89
2023/08/30 03:59:17;;;;;;;0.40;0.40;;;;;;;;;;6220731;23;20016;-88
2023/08/30 04:01:49;;;;;;;0.20;0.20;;;;;;;;;;6221463;23;20011;-88
2023/08/30 04:04:19;;;;;;;0.28;0.28;;;;;;;;;;6244680;23;20020;-89
2023/08/30 04:06:56;;;;;;;0.40;0.40;;;;;;;;;;6273589;22;20076;-89
2023/08/30 04:09:26;;;;;;;0.20;0.20;;;;;;;;;;6221577;23;20051;-88
2023/08/30 04:11:54;;;;;;;0.30;0.30;;;;;;;;;;6220555;23;20019;-88
2023/08/30 04:14:21;;;;;;;0.30;0.30;;;;;;;;;;6221005;23;20023;-90
2023/08/30 04:16:51;;;;;;;0.20;0.20;;;;;;;;;;6221878;23;20020;-88
2023/08/30 04:19:20;;;;;;;0.30;0.30;;;;;;;;;;6244005;23;20016;-89
2023/08/30 04:21:50;;;;;;;0.30;0.30;;;;;;;;;;6271915;23;20056;-88
2023/08/30 04:24:16;;;;;;;0.20;0.20;;;;;;;;;;6220129;23;20016;-89
2023/08/30 04:26:44;;;;;;;0.15;0.15;;;;;;;;;;6220121;23;20023;-88
2023/08/30 04:29:10;;;;;;;0.20;0.20;;;;;;;;;;6221481;23;20072;-88
2023/08/30 04:31:37;;;;;;;0.22;0.22;;;;;;;;;;6220192;23;20020;-89
2023/08/30 04:34:07;;;;;;;0.30;0.30;;;;;;;;;;6220560;23;20020;-89
2023/08/30 04:36:50;;;;;;;0.20;0.20;;;;;;;;;;6243891;23;20072;-87
2023/08/30 04:39:16;;;;;;;0.20;0.20;;;;;;;;;;6219621;23;20020;-89
2023/08/30 04:41:49;;;;;;;0.20;0.20;;;;;;;;;;6244267;23;20048;-88
2023/08/30 04:44:17;;;;;;;0.20;0.20;;;;;;;;;;6219109;23;20023;-88
2023/08/30 04:46:47;;;;;;;0.20;0.20;;;;;;;;;;6219563;23;20016;-88
2023/08/30 04:49:16;;;;;;;0.20;0.20;;;;;;;;;;6220468;23;20020;-89
2023/08/30 04:51:42;;;;;;;0.30;0.30;;;;;;;;;;6220305;23;20016;-89
2023/08/30 04:54:09;;;;;;;0.20;0.20;;;;;;;;;;6242425;23;20072;-88
2023/08/30 04:56:35;;;;;;;0.20;0.20;;;;;;;;;;6219509;23;20022;-88
2023/08/30 04:59:03;;;;;;;0.20;0.20;;;;;;;;;;6218440;23;20023;-88
2023/08/30 05:01:52;;;;;;;0.20;0.20;;;;;;;;;;6244456;23;20359;-89
2023/08/30 05:04:18;;;;;;;0.20;0.20;;;;;;;;;;6219037;22;20012;-88
2023/08/30 05:06:45;;;;;;;0.20;0.20;;;;;;;;;;6219354;22;20012;-87
2023/08/30 05:09:11;;;;;;;0.20;0.20;;;;;;;;;;6219573;23;20020;-89
2023/08/30 05:11:37;;;;;;;0.30;0.30;;;;;;;;;;6220905;23;20080;-89
2023/08/30 05:14:03;;;;;;;0.30;0.30;;;;;;;;;;6219244;23;20016;-89
2023/08/30 05:16:32;;;;;;;0.30;0.30;;;;;;;;;;6245742;23;20068;-89
2023/08/30 05:18:58;;;;;;;0.20;0.20;;;;;;;;;;6221997;23;20043;-89
2023/08/30 05:21:33;;;;;;;0.17;0.17;;;;;;;;;;6219138;23;20035;-89
2023/08/30 05:24:02;;;;;;;0.20;0.20;;;;;;;;;;6242814;23;20015;-83
2023/08/30 05:26:30;;;;;;;0.22;0.22;;;;;;;;;;6191145;23;20027;-84
2023/08/30 05:28:59;;;;;;;0.20;0.20;;;;;;;;;;6214354;23;20082;-84
2023/08/30 05:31:26;;;;;;;0.20;0.20;;;;;;;;;;6187877;23;20023;-84
2023/08/30 05:34:38;;;;;;;0.30;0.30;;;;;;;;;;6242568;23;20030;-83
2023/08/30 05:37:05;;;;;;;0.10;0.10;;;;;;;;;;6214529;23;20014;-84
2023/08/30 05:39:31;;;;;;;0.10;0.10;;;;;;;;;;6214708;23;20000;-83
2023/08/30 05:45:18;;;;;;;0.20;0.20;;;;;;;;;;6265340;23;20132;-84
2023/08/30 05:47:44;;;;;;;0.20;0.20;;;;;;;;;;6237309;23;20023;-85
2023/08/30 05:50:10;;;;;;;0.10;0.10;;;;;;;;;;6211574;23;20015;-84
2023/08/30 05:52:41;;;;;;;0.10;0.10;;;;;;;;;;6215712;23;20055;-85
2023/08/30 05:55:12;;;;;;;0.10;0.10;;;;;;;;;;6212700;23;20020;-86
2023/08/30 05:57:40;;;;;;;0.10;0.10;;;;;;;;;;6213062;23;20050;-83
2023/08/30 06:00:08;;;;;;;0.20;0.20;;;;;;;;;;6213370;23;20016;-84
2023/08/30 06:02:40;;;;;;;0.20;0.20;;;;;;;;;;6241091;23;20012;-85
2023/08/30 06:05:17;;;;;;;0.30;0.30;;;;;;;;;;6240622;23;20012;-84
2023/08/30 06:07:43;;;;;;;0.22;0.22;;;;;;;;;;6211906;23;20467;-85
2023/08/30 06:10:28;;;;;;;0.20;0.20;;;;;;;;;;6275123;23;20015;-83
2023/08/30 06:12:54;;;;;;;0.22;0.22;;;;;;;;;;6214391;23;20023;-85
2023/08/30 06:15:24;;;;;;;0.30;0.30;;;;;;;;;;6214159;23;20020;-86
2023/08/30 06:17:50;;;;;;;0.10;0.10;;;;;;;;;;6215127;23;20020;-87
2023/08/30 06:20:16;;;;;;;0.20;0.20;;;;;;;;;;6216516;23;20439;-87
2023/08/30 06:22:44;;;;;;;0.20;0.20;;;;;;;;;;6215652;23;20099;-85
2023/08/30 06:25:10;;;;;;;0.20;0.20;;;;;;;;;;6215632;23;20006;-86
2023/08/30 06:27:42;;;;;;;0.10;0.10;;;;;;;;;;6218607;23;20012;-85
2023/08/30 06:30:14;;;;;;;0.20;0.20;;;;;;;;;;6241145;23;20016;-86
2023/08/30 06:32:46;;;;;;;0.10;0.10;;;;;;;;;;6265659;23;20019;-86
2023/08/30 06:35:16;;;;;;;0.20;0.20;;;;;;;;;;6214165;23;20027;-86
2023/08/30 06:37:46;;;;;;;0.10;0.10;;;;;;;;;;6214464;23;20043;-87
2023/08/30 06:40:12;;;;;;;0.20;0.20;;;;;;;;;;6214209;23;20066;-85
2023/08/30 06:42:39;;;;;;;0.20;0.20;;;;;;;;;;6213148;23;20026;-88
2023/08/30 06:45:08;;;;;;;0.20;0.20;;;;;;;;;;6213374;23;20017;-86
2023/08/30 06:47:37;;;;;;;0.20;0.20;;;;;;;;;;6212285;23;20023;-84
2023/08/30 06:50:09;;;;;;;0.20;0.20;;;;;;;;;;6211697;23;20023;-85
2023/08/30 06:52:36;;;;;;;0.10;0.10;;;;;;;;;;6213052;23;20046;-86
2023/08/30 06:55:33;;;;;;;0.13;0.13;;;;;;;;;;6214132;23;20020;-87
2023/08/30 06:58:01;;;;;;;0.20;0.20;;;;;;;;;;6240076;23;20478;-85
2023/08/30 07:00:27;;;;;;;0.20;0.20;;;;;;;;;;6214772;23;20016;-87
2023/08/30 07:02:53;;;;;;;0.10;0.10;;;;;;;;;;6213755;23;20026;-86
2023/08/30 07:05:26;;;;;;;0.28;0.28;;;;;;;;;;6239358;23;20012;-87
2023/08/30 07:07:52;;;;;;;0.10;0.10;;;;;;;;;;6213075;23;20040;-85
2023/08/30 07:10:23;;;;;;;0.15;0.15;;;;;;;;;;6238192;23;20435;-85
2023/08/30 07:12:49;;;;;;;0.20;0.20;;;;;;;;;;6212949;23;20020;-85
2023/08/30 07:15:17;;;;;;;0.20;0.20;;;;;;;;;;6213471;23;20035;-84
2023/08/30 07:17:47;;;;;;;0.20;0.20;;;;;;;;;;6236191;23;20027;-85
2023/08/30 07:20:14;;;;;;;0.15;0.15;;;;;;;;;;6210960;23;20027;-86
2023/08/30 07:22:41;;;;;;;0.30;0.30;;;;;;;;;;6236890;23;20054;-86
2023/08/30 07:25:10;;;;;;;0.17;0.17;;;;;;;;;;6186736;23;20016;-87
2023/08/30 07:27:41;;;;;;;4.55;2.92;;;;;;;;;;6240548;23;20065;-86
2023/08/30 07:30:14;;;;;;;0.20;0.20;;;;;;;;;;6240184;23;20073;-91
2023/08/30 07:32:40;;;;;;;0.10;0.10;;;;;;;;;;6191917;23;20099;-87
2023/08/30 07:35:10;;;;;;;0.30;0.30;;;;;;;;;;6217638;23;20004;-87
2023/08/30 07:37:36;;;;;;;0.20;0.20;;;;;;;;;;6215634;23;20059;-87
2023/08/30 07:40:05;;;;;;;0.20;0.20;;;;;;;;;;6212725;23;20020;-86
2023/08/30 07:42:33;;;;;;;0.30;0.30;;;;;;;;;;6214342;23;20035;-87
2023/08/30 07:45:01;;;;;;;0.20;0.20;;;;;;;;;;6216575;23;20052;-86
2023/08/30 07:47:28;;;;;;;0.20;0.20;;;;;;;;;;6217843;23;20016;-86
2023/08/30 07:50:06;;;;;;;0.28;0.28;;;;;;;;;;6267311;23;20020;-88
2023/08/30 07:52:45;;;;;;;0.10;0.10;;;;;;;;;;6216639;23;20004;-85
2023/08/30 07:55:33;;;;;;;0.10;0.10;;;;;;;;;;6239375;23;20023;-85
2023/08/30 07:57:59;;;;;;;0.17;0.17;;;;;;;;;;6213379;23;20027;-86
2023/08/30 08:00:25;;;;;;;0.10;0.10;;;;;;;;;;6214355;23;20016;-86
2023/08/30 08:02:51;;;;;;;0.10;0.10;;;;;;;;;;6215399;23;20499;-86
2023/08/30 08:05:17;;;;;;;0.20;0.20;;;;;;;;;;6213584;23;19997;-86
2023/08/30 08:07:43;;;;;;;0.20;0.20;;;;;;;;;;6214975;23;20020;-85
2023/08/30 08:10:10;;;;;;;0.20;0.20;;;;;;;;;;6214013;23;20020;-87
2023/08/30 08:12:37;;;;;;;0.55;0.47;;;;;;;;;;6241107;23;20439;-87
2023/08/30 08:15:16;;;;;;;0.30;0.30;;;;;;;;;;6215465;23;20112;-86
2023/08/30 08:17:43;;;;;;;0.40;0.40;;;;;;;;;;6213316;23;20072;-85
2023/08/30 08:20:10;;;;;;;0.22;0.22;;;;;;;;;;6215749;23;20068;-86
2023/08/30 08:22:40;;;;;;;0.13;0.13;;;;;;;;;;6241161;23;20023;-86
2023/08/30 08:25:12;;;;;;;0.28;0.28;;;;;;;;;;6214881;23;20018;-85
2023/08/30 08:27:39;;;;;;;0.20;0.20;;;;;;;;;;6241628;23;20019;-85
2023/08/30 08:30:10;;;;;;;0.20;0.20;;;;;;;;;;6214388;23;20019;-85
2023/08/30 08:32:47;;;;;;;0.20;0.20;;;;;;;;;;6242399;23;20051;-87
2023/08/30 08:35:14;;;;;;;0.20;0.20;;;;;;;;;;6213325;23;20015;-84
2023/08/30 08:37:40;;;;;;;0.20;0.20;;;;;;;;;;6182210;23;20324;-86
2023/08/30 08:40:15;;;;;;;;;;;;;;;;;;6214856;23;20027;-83
2023/08/30 08:43:01;;;;;;;0.30;0.30;;;;;;;;;;6239066;23;19911;-83
2023/08/30 08:45:28;;;;;;;0.20;0.20;;;;;;;;;;6212106;23;20043;-84
2023/08/30 08:47:56;;;;;;;0.13;0.13;;;;;;;;;;6187927;23;20016;-85
2023/08/30 08:50:23;;;;;;;0.22;0.22;;;;;;;;;;6212922;23;20070;-83
2023/08/30 08:52:52;;;;;;;0.20;0.20;;;;;;;;;;6211971;23;20020;-86
2023/08/30 08:55:22;;;;;;;0.30;0.30;;;;;;;;;;6213815;23;20087;-86
2023/08/30 08:57:50;;;;;;;0.20;0.20;;;;;;;;;;6216445;23;20043;-86
2023/08/30 09:00:36;;;;;;;0.17;0.17;;;;;;;;;;6189593;23;20016;-87
2023/08/30 09:03:06;;;;;;;0.20;0.20;;;;;;;;;;6216380;23;20032;-89
2023/08/30 09:05:33;;;;;;;0.20;0.20;;;;;;;;;;6214428;23;20017;-87
2023/08/30 09:08:01;;;;;;;0.20;0.20;;;;;;;;;;6216493;23;20023;-87
2023/08/30 09:10:33;;;;;;;0.30;0.30;;;;;;;;;;6238865;23;20020;-88
2023/08/30 09:13:03;;;;;;;0.17;0.17;;;;;;;;;;6213786;23;20077;-87
2023/08/30 09:15:38;;;;;;;0.10;0.10;;;;;;;;;;6240910;23;20016;-87
2023/08/30 09:18:05;;;;;;;0.20;0.20;;;;;;;;;;6216912;23;20020;-87
2023/08/30 09:20:31;;;;;;;0.20;0.20;;;;;;;;;;6215402;23;20016;-87
2023/08/30 09:23:01;;;;;;;0.20;0.20;;;;;;;;;;6267253;23;20012;-88
2023/08/30 09:25:29;;;;;;;0.20;0.20;;;;;;;;;;6215658;23;20023;-88
2023/08/30 09:28:00;;;;;;;0.20;0.20;;;;;;;;;;6190332;23;20138;-88
2023/08/30 09:30:27;;;;;;;0.20;0.20;;;;;;;;;;6213817;23;20051;-86
2023/08/30 09:33:11;;;;;;;0.20;0.20;;;;;;;;;;6218197;23;20012;-90
2023/08/30 09:35:58;;;;;;;0.10;0.10;;;;;;;;;;6216073;23;20027;-86
2023/08/30 09:38:25;;;;;;;0.30;0.30;;;;;;;;;;6216016;23;20026;-86
2023/08/30 09:41:06;;;;;;;0.10;0.10;;;;;;;;;;6241773;23;20066;-86
2023/08/30 09:43:37;;;;;;;0.20;0.20;;;;;;;;;;6239774;23;19996;-87
2023/08/30 09:49:27;;;;;;;0.17;0.17;;;;;;;;;;6277910;23;20039;-86
2023/08/30 09:51:59;;;;;;;0.17;0.17;;;;;;;;;;6215647;23;20055;-86
2023/08/30 09:54:28;;;;;;;0.17;0.17;;;;;;;;;;6214242;23;20024;-86
2023/08/30 09:56:58;;;;;;;0.20;0.20;;;;;;;;;;6245904;23;20051;-88
2023/08/30 09:59:31;;;;;;;0.10;0.10;;;;;;;;;;6219227;23;20004;-87
2023/08/30 10:02:48;;;;;;;0.20;0.20;;;;;;;;;;6249127;23;20043;-87
2023/08/30 10:05:14;;;;;;;0.20;0.20;;;;;;;;;;6217458;23;20016;-88
2023/08/30 10:07:44;;;;;;;0.20;0.20;;;;;;;;;;6242122;23;20020;-87
2023/08/30 10:10:10;;;;;;;0.30;0.30;;;;;;;;;;6213094;23;20051;-87
2023/08/30 10:12:42;;;;;;;0.17;0.17;;;;;;;;;;6218169;23;20023;-86
2023/08/30 10:15:08;;;;;;;0.20;0.20;;;;;;;;;;6215844;23;20020;-87
2023/08/30 10:17:37;;;;;;;0.13;0.13;;;;;;;;;;6218909;23;20015;-87
2023/08/30 10:20:08;;;;;;;0.30;0.30;;;;;;;;;;6241732;23;20024;-87
2023/08/30 10:22:36;;;;;;;0.28;0.28;;;;;;;;;;6216703;23;20039;-87
2023/08/30 10:25:17;;;;;;;0.20;0.20;;;;;;;;;;6214082;23;20027;-87
2023/08/30 10:27:48;;;;;;;0.10;0.10;;;;;;;;;;6269716;23;20008;-87
2023/08/30 10:30:27;;;;;;;0.20;0.20;;;;;;;;;;6217845;23;20016;-86
2023/08/30 10:32:55;;;;;;;0.10;0.10;;;;;;;;;;6220663;23;20024;-93
2023/08/30 10:35:31;;;;;;;0.20;0.20;;;;;;;;;;6247305;23;20028;-94
2023/08/30 10:40:45;;;;;;;0.30;0.30;;;;;;;;;;6266243;22;20024;-92
2023/08/30 10:43:12;;;;;;;0.30;0.30;;;;;;;;;;6195083;23;20019;-91
2023/08/30 10:59:17;;;;;;;0.20;0.20;;;;;;;;;;6226303;22;20064;-91
2023/08/30 11:05:00;;;;;;;0.30;0.30;;;;;;;;;;6251061;22;20028;-93
2023/08/30 11:08:12;;;;;;;0.20;0.20;;;;;;;;;;6221224;23;20035;-92
2023/08/30 11:11:14;;;;;;;0.22;0.22;;;;;;;;;;6234509;23;20022;-86
2023/08/30 11:13:54;;;;;;;0.30;0.30;;;;;;;;;;6241668;23;20008;-87
2023/08/30 11:23:27;;;;;;;0.20;0.20;;;;;;;;;;6280405;22;20019;-88
2023/08/30 11:26:03;;;;;;;0.10;0.10;;;;;;;;;;6218168;23;20024;-88
2023/08/30 11:32:12;;;;;;;0.20;0.20;;;;;;;;;;6275973;22;20031;-87
2023/08/30 11:34:38;;;;;;;0.10;0.10;;;;;;;;;;6217998;23;20402;-85
2023/08/30 11:37:04;;;;;;;0.20;0.20;;;;;;;;;;6216525;23;20020;-87
2023/08/30 11:39:33;;;;;;;0.20;0.20;;;;;;;;;;6217782;23;20023;-86
2023/08/30 11:42:02;;;;;;;0.10;0.10;;;;;;;;;;6193099;23;20052;-88
2023/08/30 11:44:32;;;;;;;0.20;0.20;;;;;;;;;;6217194;23;20016;-86
2023/08/30 11:47:04;;;;;;;0.10;0.10;;;;;;;;;;6242454;23;20012;-87
2023/08/30 11:49:34;;;;;;;0.30;0.30;;;;;;;;;;6239824;23;20020;-86
2023/08/30 11:52:01;;;;;;;0.20;0.20;;;;;;;;;;6242142;23;20016;-86
2023/08/30 11:54:32;;;;;;;0.20;0.20;;;;;;;;;;6216194;23;20020;-88
2023/08/30 11:56:58;;;;;;;0.20;0.20;;;;;;;;;;6243521;23;20023;-87
2023/08/30 11:59:28;;;;;;;0.20;0.20;;;;;;;;;;6219567;23;20008;-85
2023/08/30 12:02:36;;;;;;;0.20;0.20;;;;;;;;;;6222116;23;20020;-85
2023/08/30 12:05:06;;;;;;;0.20;0.20;;;;;;;;;;6219335;23;20452;-87
2023/08/30 12:10:30;;;;;;;0.20;0.20;;;;;;;;;;6237071;23;20052;-85
2023/08/30 12:13:04;;;;;;;0.20;0.20;;;;;;;;;;6269792;23;20000;-87
2023/08/30 12:15:34;;;;;;;0.20;0.20;;;;;;;;;;6218521;23;20007;-87
2023/08/30 12:18:12;;;;;;;0.20;0.20;;;;;;;;;;6219788;23;20044;-86
2023/08/30 12:21:04;;;;;;;0.10;0.10;;;;;;;;;;6217154;23;20020;-86
2023/08/30 12:23:37;;;;;;;0.10;0.10;;;;;;;;;;6199132;23;20016;-85
2023/08/30 12:26:10;;;;;;;0.30;0.30;;;;;;;;;;6193486;23;20043;-87
2023/08/30 12:28:55;;;;;;;0.20;0.20;;;;;;;;;;6279770;23;20402;-87
2023/08/30 12:31:24;;;;;;;0.10;0.10;;;;;;;;;;6246135;23;20016;-87
2023/08/30 12:34:12;;;;;;;0.20;0.20;;;;;;;;;;6240388;23;20072;-90
2023/08/30 12:40:07;;;;;;;0.20;0.20;;;;;;;;;;6281760;23;20025;-88
2023/08/30 12:42:34;;;;;;;0.38;0.38;;;;;;;;;;6217186;23;20454;-88
2023/08/30 12:45:00;;;;;;;0.20;0.20;;;;;;;;;;6219198;23;20016;-88
2023/08/30 12:47:30;;;;;;;0.10;0.10;;;;;;;;;;6218430;23;20016;-84
2023/08/30 12:50:02;;;;;;;0.22;0.22;;;;;;;;;;6217186;23;20080;-85
2023/08/30 12:52:29;;;;;;;0.30;0.30;;;;;;;;;;6241419;23;20020;-88
2023/08/30 12:55:01;;;;;;;0.20;0.20;;;;;;;;;;6219288;23;20056;-87
2023/08/30 12:57:28;;;;;;;0.30;0.30;;;;;;;;;;6218192;23;20020;-85
2023/08/30 12:59:54;;;;;;;0.20;0.20;;;;;;;;;;6189909;23;20012;-87
2023/08/30 13:02:21;;;;;;;0.20;0.20;;;;;;;;;;6216605;23;20020;-87
2023/08/30 13:04:51;;;;;;;0.30;0.30;;;;;;;;;;6218115;23;20016;-86
2023/08/30 13:07:18;;;;;;;0.20;0.20;;;;;;;;;;6217319;23;20063;-84
2023/08/30 13:09:48;;;;;;;0.20;0.20;;;;;;;;;;6212801;23;20012;-85
2023/08/30 13:12:14;;;;;;;0.20;0.20;;;;;;;;;;6220592;23;20012;-85
2023/08/30 13:14:40;;;;;;;0.20;0.20;;;;;;;;;;6192023;23;20020;-88
2023/08/30 13:20:21;;;;;;;0.30;0.30;;;;;;;;;;6243854;23;20027;-87
2023/08/30 13:22:50;;;;;;;0.20;0.20;;;;;;;;;;6218819;23;20024;-85
2023/08/30 13:25:21;;;;;;;0.10;0.10;;;;;;;;;;6238890;23;20012;-84
2023/08/30 13:28:01;;;;;;;0.22;0.22;;;;;;;;;;6241248;23;20020;-85
2023/08/30 13:30:29;;;;;;;0.20;0.20;;;;;;;;;;6191006;23;20023;-86
2023/08/30 13:32:55;;;;;;;0.30;0.30;;;;;;;;;;6213273;23;20099;-87
2023/08/30 13:35:21;;;;;;;0.30;0.30;;;;;;;;;;6239387;23;20034;-88
2023/08/30 13:37:47;;;;;;;0.20;0.20;;;;;;;;;;6216361;23;20075;-86
2023/08/30 13:40:15;;;;;;;0.10;0.10;;;;;;;;;;6214944;23;20023;-88
2023/08/30 13:42:53;;;;;;;0.10;0.10;;;;;;;;;;6194773;23;20027;-85
2023/08/30 13:45:19;;;;;;;0.20;0.20;;;;;;;;;;6216632;23;20082;-86
2023/08/30 13:47:47;;;;;;;0.20;0.20;;;;;;;;;;6216301;23;20019;-86
2023/08/30 13:50:16;;;;;;;0.10;0.10;;;;;;;;;;6215466;23;20020;-88
2023/08/30 13:52:42;;;;;;;0.20;0.20;;;;;;;;;;6217778;23;20046;-86
2023/08/30 13:55:10;;;;;;;0.30;0.30;;;;;;;;;;6239822;23;20016;-86
2023/08/30 13:57:36;;;;;;;0.17;0.17;;;;;;;;;;6241761;23;20067;-86
2023/08/30 14:00:10;;;;;;;0.25;0.25;;;;;;;;;;6240644;23;20040;-86
2023/08/30 14:02:36;;;;;;;0.20;0.20;;;;;;;;;;6191164;23;20047;-87
2023/08/30 14:05:09;;;;;;;0.10;0.10;;;;;;;;;;6217028;23;20020;-86
2023/08/30 14:07:36;;;;;;;0.10;0.10;;;;;;;;;;6215151;23;20016;-85
2023/08/30 14:10:02;;;;;;;0.30;0.30;;;;;;;;;;6241063;23;20031;-87
2023/08/30 14:12:29;;;;;;;0.30;0.30;;;;;;;;;;6241170;23;20463;-85
2023/08/30 14:14:55;;;;;;;0.10;0.10;;;;;;;;;;6214255;23;20016;-86
2023/08/30 14:17:22;;;;;;;0.30;0.30;;;;;;;;;;6240865;23;20020;-86
2023/08/30 14:19:49;;;;;;;0.20;0.20;;;;;;;;;;6214148;23;20016;-86
2023/08/30 14:22:15;;;;;;;0.10;0.10;;;;;;;;;;6215041;23;20004;-84
2023/08/30 14:24:43;;;;;;;0.10;0.10;;;;;;;;;;6210989;23;20016;-85
2023/08/30 14:27:13;;;;;;;0.20;0.20;;;;;;;;;;6216752;23;20079;-86
2023/08/30 14:29:40;;;;;;;0.20;0.20;;;;;;;;;;6215405;23;20020;-86
2023/08/30 14:32:06;;;;;;;0.20;0.20;;;;;;;;;;6240345;23;20072;-86
2023/08/30 14:34:34;;;;;;;0.17;0.17;;;;;;;;;;6212355;23;20027;-86
2023/08/30 14:37:00;;;;;;;0.30;0.30;;;;;;;;;;6205387;23;20031;-85
2023/08/30 14:39:41;;;;;;;0.10;0.10;;;;;;;;;;6235605;23;20096;-87
2023/08/30 14:42:08;;;;;;;0.03;0.03;;;;;;;;;;6214160;23;20076;-87
2023/08/30 14:44:37;;;;;;;0.10;0.10;;;;;;;;;;6239752;23;20012;-85
2023/08/30 14:47:04;;;;;;;0.20;0.20;;;;;;;;;;6212357;23;20022;-87
2023/08/30 14:49:33;;;;;;;0.20;0.20;;;;;;;;;;6211445;23;20020;-87
2023/08/30 14:52:24;;;;;;;0.20;0.20;;;;;;;;;;6215317;23;20098;-86
2023/08/30 14:54:50;;;;;;;0.10;0.10;;;;;;;;;;6211439;23;20448;-85
2023/08/30 14:57:19;;;;;;;0.10;0.10;;;;;;;;;;6214716;23;20016;-83
2023/08/30 14:59:48;;;;;;;0.20;0.20;;;;;;;;;;6263138;23;20048;-85
2023/08/30 15:02:28;;;;;;;0.10;0.10;;;;;;;;;;6214902;23;20046;-85
2023/08/30 15:04:55;;;;;;;0.20;0.20;;;;;;;;;;6239881;23;20012;-85
2023/08/30 15:07:22;;;;;;;0.30;0.30;;;;;;;;;;6215310;23;20071;-84
2023/08/30 15:09:48;;;;;;;0.22;0.22;;;;;;;;;;6211788;23;20012;-85
2023/08/30 15:12:14;;;;;;;0.10;0.10;;;;;;;;;;6213642;23;20012;-86
2023/08/30 15:14:43;;;;;;;0.20;0.20;;;;;;;;;;6214854;23;20070;-85
2023/08/30 15:17:10;;;;;;;0.30;0.30;;;;;;;;;;6210303;23;20042;-85
2023/08/30 15:19:37;;;;;;;0.20;0.20;;;;;;;;;;6214787;23;20016;-84
2023/08/30 15:22:09;;;;;;;0.20;0.20;;;;;;;;;;6236698;23;20002;-84
2023/08/30 15:24:38;;;;;;;;;;;;;;;;;;6237004;23;20016;-85
2023/08/30 15:27:06;;;;;;;0.10;0.10;;;;;;;;;;6213641;23;19911;-86
2023/08/30 15:29:32;;;;;;;0.20;0.20;;;;;;;;;;6188076;23;20020;-85
2023/08/30 15:31:59;;;;;;;0.20;0.20;;;;;;;;;;6212089;23;20011;-82
2023/08/30 15:34:25;;;;;;;0.10;0.10;;;;;;;;;;6212695;23;20024;-85
2023/08/30 15:36:51;;;;;;;0.10;0.10;;;;;;;;;;6213180;23;20020;-85
2023/08/30 15:39:18;;;;;;;0.20;0.20;;;;;;;;;;6236825;23;20031;-84
2023/08/30 15:41:45;;;;;;;0.22;0.22;;;;;;;;;;6213781;23;20043;-85
2023/08/30 15:44:13;;;;;;;0.10;0.10;;;;;;;;;;6239890;23;20016;-85
2023/08/30 15:46:39;;;;;;;0.20;0.20;;;;;;;;;;6212794;23;20016;-85
2023/08/30 15:49:06;;;;;;;0.17;0.17;;;;;;;;;;6212906;23;20072;-86